Time;durP1;ratioP1;P1;durP2;ratioP2;P2;SDS_P1;SDS_P2;PMS_P1;PMS_P2;Temp;Humidity;BMP_temperature;BMP_pressure;BME280_temperature;BME280_humidity;BME280_pressure;Samples;Min_cycle;Max_cycle;Signal;HPM_P1;HPM_P2
2022/05/25 00:00:46;;;;;;;13.15;12.25;;;8.60;99.90;;;;;;4976074;28;20090;-73
2022/05/25 00:03:14;;;;;;;14.32;13.15;;;8.60;99.90;;;;;;4976408;28;20058;-73
2022/05/25 00:05:41;;;;;;;13.55;12.50;;;8.50;99.90;;;;;;4976027;28;20280;-73
2022/05/25 00:08:13;;;;;;;13.10;12.00;;;8.70;99.90;;;;;;4975132;28;20054;-73
2022/05/25 00:10:40;;;;;;;13.10;11.98;;;8.60;99.90;;;;;;4977162;28;20069;-73
2022/05/25 00:13:07;;;;;;;12.52;11.43;;;8.70;99.90;;;;;;4975388;28;20042;-72
2022/05/25 00:15:35;;;;;;;12.63;11.75;;;8.50;99.90;;;;;;4975013;28;20097;-73
2022/05/25 00:18:02;;;;;;;12.15;11.18;;;8.50;99.90;;;;;;4959445;28;20121;-72
2022/05/25 00:20:30;;;;;;;12.63;11.43;;;8.50;99.90;;;;;;4977214;28;20049;-72
2022/05/25 00:22:58;;;;;;;11.23;10.43;;;8.50;99.90;;;;;;4975039;28;20058;-72
2022/05/25 00:25:37;;;;;;;11.82;10.88;;;8.60;99.90;;;;;;4972648;28;20050;-73
2022/05/25 00:28:08;;;;;;;11.93;10.77;;;8.70;99.90;;;;;;4977381;28;20058;-73
2022/05/25 00:30:35;;;;;;;11.68;10.57;;;8.70;99.90;;;;;;4975930;28;20120;-73
2022/05/25 00:33:02;;;;;;;16.33;10.80;;;8.80;99.90;;;;;;4976490;28;20046;-72
2022/05/25 00:35:32;;;;;;;11.77;10.55;;;8.70;99.90;;;;;;4977003;28;20097;-72
2022/05/25 00:37:59;;;;;;;12.05;11.15;;;8.60;99.90;;;;;;4975523;28;20045;-73
2022/05/25 00:40:36;;;;;;;12.10;10.73;;;8.60;99.90;;;;;;4974002;28;20050;-73
2022/05/25 00:43:03;;;;;;;11.73;10.70;;;8.70;99.90;;;;;;4974484;28;20270;-73
2022/05/25 00:45:35;;;;;;;11.90;10.55;;;8.60;99.90;;;;;;4976864;28;20050;-73
2022/05/25 00:48:03;;;;;;;11.65;10.65;;;8.50;99.90;;;;;;4976553;28;20137;-73
2022/05/25 00:51:11;;;;;;;11.73;10.75;;;8.40;99.90;;;;;;4980241;28;20744;-72
2022/05/25 00:53:18;;;;;;;14.00;11.07;;;8.40;99.90;;;;;;4973375;28;20050;-72
2022/05/25 00:55:45;;;;;;;12.90;11.07;;;8.40;99.90;;;;;;4974275;28;20046;-72
2022/05/25 00:58:12;;;;;;;11.15;10.32;;;8.40;99.90;;;;;;4978305;28;20259;-72
2022/05/25 01:00:39;;;;;;;12.07;11.07;;;8.20;99.90;;;;;;4977724;28;20042;-72
2022/05/25 01:03:10;;;;;;;11.10;10.00;;;8.30;99.90;;;;;;4977981;28;20535;-73
2022/05/25 01:05:54;;;;;;;11.23;9.38;;;8.10;99.90;;;;;;4973575;28;20049;-72
2022/05/25 01:08:42;;;;;;;10.63;9.65;;;8.20;99.90;;;;;;4986513;28;20042;-72
2022/05/25 01:11:20;;;;;;;13.48;10.73;;;8.10;99.90;;;;;;4990747;28;20140;-73
2022/05/25 01:14:11;;;;;;;10.88;9.88;;;8.20;99.90;;;;;;4984753;28;20046;-72
2022/05/25 01:17:01;;;;;;;12.10;9.50;;;8.10;99.90;;;;;;4993721;28;20046;-73
2022/05/25 01:19:42;;;;;;;10.95;9.90;;;8.00;99.90;;;;;;4999220;28;20080;-73
2022/05/25 01:22:21;;;;;;;10.90;9.98;;;8.10;99.90;;;;;;4992856;23;20052;-71
2022/05/25 01:25:17;;;;;;;11.02;9.48;;;8.10;99.90;;;;;;4982487;28;20466;-73
2022/05/25 01:27:49;;;;;;;10.68;9.60;;;8.10;99.90;;;;;;4984538;28;20101;-73
2022/05/25 01:30:27;;;;;;;11.27;9.40;;;8.10;99.90;;;;;;4983667;28;20318;-73
2022/05/25 01:33:12;;;;;;;10.15;9.35;;;8.00;99.90;;;;;;4964559;28;20058;-72
2022/05/25 01:35:56;;;;;;;14.27;9.93;;;7.90;99.90;;;;;;4966223;28;20039;-73
2022/05/25 01:38:40;;;;;;;10.82;9.65;;;7.90;99.90;;;;;;4971067;28;20062;-73
2022/05/25 01:41:30;;;;;;;12.20;10.98;;;7.80;99.90;;;;;;4970212;28;20117;-72
2022/05/25 01:44:04;;;;;;;11.38;10.45;;;7.80;99.90;;;;;;4967387;28;20081;-72
2022/05/25 01:46:40;;;;;;;12.57;11.48;;;7.80;99.90;;;;;;4987174;28;20046;-72
2022/05/25 01:49:13;;;;;;;12.45;11.43;;;7.80;99.90;;;;;;4947236;28;20503;-73
2022/05/25 01:51:47;;;;;;;12.50;11.32;;;7.70;99.90;;;;;;4955598;28;20137;-72
2022/05/25 01:54:19;;;;;;;12.90;11.80;;;7.70;99.90;;;;;;4965300;28;20051;-73
2022/05/25 01:56:53;;;;;;;12.32;11.32;;;7.80;99.90;;;;;;4963129;28;20449;-73
2022/05/25 01:59:20;;;;;;;13.48;12.27;;;7.80;99.90;;;;;;4968206;28;20097;-73
2022/05/25 02:04:40;;;;;;;12.85;11.65;;;7.80;99.90;;;;;;4967494;28;20513;-72
2022/05/25 02:07:09;;;;;;;12.93;11.73;;;7.50;99.90;;;;;;4966311;28;20141;-72
2022/05/25 02:09:53;;;;;;;14.43;12.90;;;7.50;99.90;;;;;;4976784;28;20413;-73
2022/05/25 02:12:56;;;;;;;13.32;12.05;;;7.50;99.90;;;;;;4978008;28;20093;-72
2022/05/25 02:15:23;;;;;;;13.27;11.98;;;7.40;99.90;;;;;;4965289;28;20563;-72
2022/05/25 02:18:09;;;;;;;13.00;11.80;;;7.40;99.90;;;;;;4987886;28;20082;-72
2022/05/25 02:20:52;;;;;;;13.13;11.98;;;7.30;99.90;;;;;;4964995;28;20047;-73
2022/05/25 02:23:27;;;;;;;12.45;11.45;;;7.10;99.90;;;;;;4964017;28;20109;-70
2022/05/25 02:26:11;;;;;;;14.15;12.55;;;7.10;99.90;;;;;;4963130;28;20544;-70
2022/05/25 02:28:44;;;;;;;12.95;11.85;;;7.30;99.90;;;;;;4963926;28;20173;-73
2022/05/25 02:31:17;;;;;;;13.68;12.40;;;7.10;99.90;;;;;;4963519;28;20043;-73
2022/05/25 02:33:48;;;;;;;14.57;12.65;;;7.10;99.90;;;;;;4960283;28;20247;-72
2022/05/25 02:36:17;;;;;;;12.63;11.68;;;7.10;99.90;;;;;;4961916;28;20043;-72
2022/05/25 02:38:44;;;;;;;13.55;12.35;;;7.00;99.90;;;;;;4971813;28;20050;-71
2022/05/25 02:41:14;;;;;;;13.55;12.25;;;6.90;99.90;;;;;;4967168;28;20154;-72
2022/05/25 02:43:41;;;;;;;13.70;12.45;;;6.90;99.90;;;;;;4967532;28;20446;-69
2022/05/25 02:46:08;;;;;;;14.50;13.10;;;6.90;99.90;;;;;;4970423;28;20350;-71
2022/05/25 02:48:36;;;;;;;14.38;13.02;;;7.00;99.90;;;;;;4979427;28;20057;-72
2022/05/25 02:51:03;;;;;;;16.13;13.38;;;6.90;99.90;;;;;;4963260;28;20323;-72
2022/05/25 02:53:30;;;;;;;15.02;13.77;;;6.90;99.90;;;;;;4965132;28;20121;-72
2022/05/25 02:55:56;;;;;;;14.93;13.80;;;7.00;99.90;;;;;;4965053;28;20066;-69
2022/05/25 02:58:24;;;;;;;19.25;13.35;;;6.90;99.90;;;;;;4965443;28;20078;-70
2022/05/25 03:00:50;;;;;;;15.27;13.43;;;7.00;99.90;;;;;;4964401;28;20348;-70
2022/05/25 03:03:17;;;;;;;13.20;11.85;;;6.90;99.90;;;;;;4965743;28;20090;-71
2022/05/25 03:05:44;;;;;;;17.38;13.52;;;6.90;99.90;;;;;;4966161;28;20074;-70
2022/05/25 03:08:11;;;;;;;14.77;13.27;;;7.10;99.90;;;;;;4971670;28;20351;-70
2022/05/25 03:10:37;;;;;;;12.40;11.15;;;6.90;99.90;;;;;;4975654;28;20586;-71
2022/05/25 03:13:06;;;;;;;16.90;12.40;;;6.90;99.90;;;;;;4972187;28;20101;-71
2022/05/25 03:15:33;;;;;;;15.68;13.15;;;6.90;99.90;;;;;;4963408;28;20224;-71
2022/05/25 03:18:00;;;;;;;14.32;12.63;;;6.90;99.90;;;;;;4968486;28;20626;-71
2022/05/25 03:20:28;;;;;;;19.52;13.40;;;6.90;99.90;;;;;;4963347;28;20106;-69
2022/05/25 03:22:55;;;;;;;14.00;12.63;;;6.90;99.90;;;;;;4961894;28;20476;-70
2022/05/25 03:25:22;;;;;;;15.32;13.65;;;6.90;99.90;;;;;;4961647;28;20070;-72
2022/05/25 03:27:49;;;;;;;14.73;13.32;;;6.70;99.90;;;;;;4962882;28;20505;-72
2022/05/25 03:30:17;;;;;;;15.38;13.90;;;6.60;99.90;;;;;;4944984;28;20517;-70
2022/05/25 03:32:44;;;;;;;16.35;14.80;;;6.70;99.90;;;;;;4961265;28;20720;-71
2022/05/25 03:35:11;;;;;;;16.17;14.00;;;6.70;99.90;;;;;;4962196;28;20417;-72
2022/05/25 03:37:39;;;;;;;14.82;13.57;;;6.90;99.90;;;;;;4962175;28;20116;-71
2022/05/25 03:40:09;;;;;;;15.23;13.73;;;6.80;99.90;;;;;;4960412;28;20105;-72
2022/05/25 03:42:36;;;;;;;14.90;13.50;;;6.80;99.90;;;;;;4974721;28;20626;-70
2022/05/25 03:45:04;;;;;;;16.08;14.38;;;6.90;99.90;;;;;;4960570;28;20047;-72
2022/05/25 03:47:32;;;;;;;15.65;13.63;;;6.70;99.90;;;;;;4970276;28;20046;-70
2022/05/25 03:49:59;;;;;;;15.85;14.05;;;6.70;99.90;;;;;;4961489;28;20109;-70
2022/05/25 03:52:26;;;;;;;18.33;15.18;;;6.70;99.90;;;;;;4976527;28;20063;-71
2022/05/25 03:54:53;;;;;;;14.07;12.65;;;6.70;99.90;;;;;;4961990;28;20101;-70
2022/05/25 03:57:20;;;;;;;20.80;14.95;;;6.70;99.90;;;;;;4960717;28;20516;-72
2022/05/25 03:59:46;;;;;;;16.80;15.02;;;6.70;99.90;;;;;;4960956;28;20149;-70
2022/05/25 04:02:14;;;;;;;19.08;15.20;;;6.80;99.90;;;;;;4959763;28;20055;-72
2022/05/25 04:04:41;;;;;;;19.38;15.52;;;7.00;99.90;;;;;;4960145;28;20089;-71
2022/05/25 04:07:08;;;;;;;17.40;14.30;;;7.10;99.90;;;;;;4959807;28;20050;-71
2022/05/25 04:09:35;;;;;;;19.75;14.95;;;7.10;99.90;;;;;;4959844;28;20105;-72
2022/05/25 04:12:02;;;;;;;14.85;13.45;;;7.20;99.90;;;;;;4962750;28;20145;-71
2022/05/25 04:14:29;;;;;;;15.35;13.95;;;7.10;99.90;;;;;;4957984;28;20129;-70
2022/05/25 04:16:56;;;;;;;14.48;13.13;;;7.30;99.90;;;;;;4971044;28;20049;-71
2022/05/25 04:19:22;;;;;;;18.02;14.57;;;7.40;99.90;;;;;;4979587;28;20112;-72
2022/05/25 04:21:49;;;;;;;20.77;16.05;;;7.40;99.90;;;;;;4980068;28;20128;-72
2022/05/25 04:24:16;;;;;;;15.05;13.55;;;7.50;99.90;;;;;;4990795;28;20031;-70
2022/05/25 04:26:43;;;;;;;17.05;13.77;;;7.40;99.90;;;;;;4961700;28;20105;-70
2022/05/25 04:29:10;;;;;;;20.92;14.68;;;7.40;99.90;;;;;;4964241;28;20157;-71
2022/05/25 04:31:36;;;;;;;16.90;15.05;;;7.40;99.90;;;;;;4961861;28;20406;-72
2022/05/25 04:34:03;;;;;;;16.00;14.48;;;7.40;99.90;;;;;;4960501;28;20629;-72
2022/05/25 04:36:30;;;;;;;16.10;14.60;;;7.30;99.90;;;;;;4962110;28;21407;-71
2022/05/25 04:38:57;;;;;;;16.70;15.00;;;7.40;99.90;;;;;;4960213;28;20078;-72
2022/05/25 04:41:23;;;;;;;18.23;15.65;;;7.60;99.90;;;;;;4940789;28;20628;-72
2022/05/25 04:43:50;;;;;;;16.92;15.20;;;7.80;99.90;;;;;;4975840;28;20461;-72
2022/05/25 04:46:17;;;;;;;17.55;15.60;;;7.90;99.90;;;;;;4966939;28;20084;-72
2022/05/25 04:48:44;;;;;;;15.88;14.35;;;8.10;99.90;;;;;;4966256;28;20257;-71
2022/05/25 04:51:12;;;;;;;16.77;14.95;;;8.30;99.90;;;;;;4958939;28;20047;-71
2022/05/25 04:53:40;;;;;;;16.45;14.75;;;8.60;99.90;;;;;;4959046;28;20142;-72
2022/05/25 04:58:52;;;;;;;20.63;18.55;;;9.40;99.90;;;;;;4961884;28;20133;-71
2022/05/25 05:01:19;;;;;;;20.23;18.50;;;9.80;99.90;;;;;;4960450;28;20218;-70
2022/05/25 05:03:47;;;;;;;19.92;18.52;;;10.10;99.90;;;;;;4944234;28;20050;-71
2022/05/25 05:06:15;;;;;;;22.23;20.52;;;10.30;99.90;;;;;;4961244;28;20306;-73
2022/05/25 05:08:42;;;;;;;23.88;21.70;;;10.60;99.90;;;;;;4944288;28;20239;-71
2022/05/25 05:11:15;;;;;;;23.35;21.52;;;11.10;99.90;;;;;;4961248;28;20150;-72
2022/05/25 05:13:42;;;;;;;24.15;22.42;;;11.40;99.90;;;;;;4962960;28;20047;-71
2022/05/25 05:16:15;;;;;;;23.67;22.08;;;11.80;99.90;;;;;;4962757;28;20030;-73
2022/05/25 05:18:43;;;;;;;24.02;22.13;;;12.10;99.90;;;;;;4969047;28;20081;-73
2022/05/25 05:21:13;;;;;;;23.75;22.00;;;12.50;99.90;;;;;;4960961;28;20166;-72
2022/05/25 05:23:41;;;;;;;23.98;22.48;;;12.90;99.90;;;;;;4961207;28;20337;-72
2022/05/25 05:26:08;;;;;;;24.60;22.83;;;13.20;99.90;;;;;;4960853;28;20145;-74
2022/05/25 05:28:38;;;;;;;24.63;23.00;;;13.30;99.90;;;;;;4959792;28;20066;-72
2022/05/25 05:31:05;;;;;;;24.50;22.80;;;13.50;99.90;;;;;;4962017;28;20055;-73
2022/05/25 05:33:32;;;;;;;24.55;22.83;;;13.40;99.90;;;;;;4964075;28;20541;-71
2022/05/25 05:36:04;;;;;;;24.60;23.02;;;13.60;99.90;;;;;;4963160;28;20039;-72
2022/05/25 05:38:33;;;;;;;24.33;22.75;;;13.80;99.90;;;;;;4960967;28;20051;-72
2022/05/25 05:41:00;;;;;;;23.83;22.13;;;13.80;99.90;;;;;;4964082;28;20508;-74
2022/05/25 05:43:27;;;;;;;23.13;21.63;;;14.10;99.90;;;;;;4965931;28;20127;-73
2022/05/25 05:45:55;;;;;;;23.50;21.75;;;14.10;99.90;;;;;;4966607;28;20293;-73
2022/05/25 05:48:28;;;;;;;24.33;22.73;;;14.00;99.90;;;;;;4967246;28;20484;-72
2022/05/25 05:50:56;;;;;;;23.98;22.45;;;13.90;99.90;;;;;;4963781;28;20058;-72
2022/05/25 05:53:26;;;;;;;24.70;22.75;;;13.80;99.90;;;;;;4962978;28;20493;-72
2022/05/25 05:55:53;;;;;;;24.45;22.65;;;13.90;99.90;;;;;;4962061;28;20043;-71
2022/05/25 05:58:20;;;;;;;22.98;21.45;;;14.20;99.90;;;;;;4964812;28;20082;-73
2022/05/25 06:00:46;;;;;;;23.50;21.88;;;14.20;99.90;;;;;;4963375;28;20714;-72
2022/05/25 06:03:14;;;;;;;24.08;22.25;;;14.20;99.90;;;;;;4964270;28;20141;-71
2022/05/25 06:05:43;;;;;;;25.27;23.08;;;14.00;99.90;;;;;;4963065;28;20046;-71
2022/05/25 06:08:14;;;;;;;24.40;22.70;;;14.10;99.90;;;;;;4963587;28;20057;-72
2022/05/25 06:10:41;;;;;;;25.58;23.98;;;14.20;99.90;;;;;;4963580;28;20039;-72
2022/05/25 06:13:08;;;;;;;25.83;23.70;;;14.20;99.90;;;;;;4978656;28;20097;-71
2022/05/25 06:21:09;;;;;;;25.38;23.48;;;14.50;99.90;;;;;;4980636;28;20227;-73
2022/05/25 06:23:36;;;;;;;26.35;24.50;;;14.50;99.90;;;;;;4963999;28;20643;-70
2022/05/25 06:26:02;;;;;;;26.52;24.73;;;14.80;99.90;;;;;;4962572;28;20062;-70
2022/05/25 06:28:29;;;;;;;26.67;24.58;;;14.80;99.90;;;;;;4963482;28;20063;-71
2022/05/25 06:30:56;;;;;;;26.63;24.58;;;14.90;99.90;;;;;;4963382;28;20054;-72
2022/05/25 06:33:23;;;;;;;26.65;24.65;;;14.90;99.90;;;;;;4963483;28;20382;-72
2022/05/25 06:35:50;;;;;;;25.83;24.13;;;14.80;99.90;;;;;;4963774;28;20049;-73
2022/05/25 06:38:17;;;;;;;26.65;24.85;;;14.90;99.90;;;;;;4960444;28;20322;-71
2022/05/25 06:40:43;;;;;;;28.52;26.33;;;15.00;99.90;;;;;;4941943;28;20169;-71
2022/05/25 06:43:10;;;;;;;26.42;24.80;;;15.00;99.90;;;;;;4981024;28;20194;-71
2022/05/25 06:45:38;;;;;;;26.30;24.60;;;15.20;99.90;;;;;;4966628;28;20038;-71
2022/05/25 06:48:07;;;;;;;27.73;25.90;;;15.40;99.90;;;;;;4983325;28;20511;-71
2022/05/25 06:50:34;;;;;;;28.08;26.08;;;15.60;99.90;;;;;;4946129;28;20070;-71
2022/05/25 06:53:01;;;;;;;27.75;25.85;;;15.80;99.90;;;;;;4963442;28;20123;-71
2022/05/25 06:55:28;;;;;;;27.85;25.95;;;16.00;99.90;;;;;;4964959;28;20043;-73
2022/05/25 06:57:55;;;;;;;28.75;26.50;;;16.10;99.90;;;;;;4963036;28;20057;-72
2022/05/25 07:00:22;;;;;;;28.65;26.63;;;15.90;99.90;;;;;;4961716;28;20050;-72
2022/05/25 07:02:48;;;;;;;28.25;26.25;;;15.60;99.90;;;;;;4961997;28;20059;-69
2022/05/25 07:05:15;;;;;;;28.50;26.15;;;15.80;99.90;;;;;;4963099;28;20277;-72
2022/05/25 07:07:42;;;;;;;28.02;26.13;;;15.90;99.90;;;;;;4961586;28;20054;-71
2022/05/25 07:10:09;;;;;;;29.55;27.52;;;15.70;99.90;;;;;;4961538;28;20125;-72
2022/05/25 07:12:36;;;;;;;29.38;27.05;;;15.50;99.90;;;;;;4965266;28;20058;-71
2022/05/25 07:15:03;;;;;;;28.27;26.25;;;15.50;99.90;;;;;;4950399;28;20101;-71
2022/05/25 07:17:32;;;;;;;28.48;26.27;;;15.80;99.90;;;;;;4973167;28;20097;-70
2022/05/25 07:19:59;;;;;;;28.77;26.73;;;15.90;99.90;;;;;;4969918;28;20137;-71
2022/05/25 07:22:25;;;;;;;27.60;25.67;;;16.00;99.90;;;;;;4998349;23;20163;-72
2022/05/25 07:24:52;;;;;;;28.05;25.83;;;16.10;99.90;;;;;;5001901;28;20735;-71
2022/05/25 07:27:19;;;;;;;27.35;25.45;;;16.20;99.90;;;;;;5002505;28;20046;-71
2022/05/25 07:29:45;;;;;;;27.25;25.55;;;16.20;99.90;;;;;;5002983;28;20107;-72
2022/05/25 07:32:14;;;;;;;27.92;25.92;;;16.20;99.90;;;;;;5002631;28;20436;-74
2022/05/25 07:34:46;;;;;;;29.27;27.13;;;15.90;99.90;;;;;;4985218;28;20054;-73
2022/05/25 07:37:17;;;;;;;26.70;24.58;;;16.20;99.90;;;;;;5002090;28;20069;-76
2022/05/25 07:40:06;;;;;;;27.92;25.75;;;16.70;99.90;;;;;;4973859;28;20074;-73
2022/05/25 07:42:34;;;;;;;26.90;25.10;;;16.80;99.90;;;;;;5006183;28;20052;-74
2022/05/25 07:45:03;;;;;;;27.33;25.58;;;16.70;99.90;;;;;;5000740;28;20041;-73
2022/05/25 07:47:32;;;;;;;27.13;25.15;;;16.20;99.90;;;;;;4977789;28;20207;-75
2022/05/25 07:49:59;;;;;;;26.20;24.48;;;16.40;99.90;;;;;;4984970;28;20054;-73
2022/05/25 07:52:30;;;;;;;25.13;23.52;;;16.80;99.90;;;;;;5000902;28;20053;-75
2022/05/25 07:54:57;;;;;;;27.23;25.42;;;16.90;99.90;;;;;;5003173;28;20050;-74
2022/05/25 07:57:24;;;;;;;26.27;24.27;;;16.90;99.90;;;;;;5002988;28;20169;-73
2022/05/25 07:59:51;;;;;;;25.45;23.65;;;17.20;99.90;;;;;;5002296;28;20077;-73
2022/05/25 08:08:05;;;;;;;24.67;23.20;;;16.90;99.90;;;;;;5002523;28;20088;-76
2022/05/25 08:10:32;;;;;;;24.48;22.98;;;17.30;99.90;;;;;;5001496;28;20073;-73
2022/05/25 08:13:00;;;;;;;25.60;24.00;;;16.80;99.90;;;;;;5006069;28;20049;-73
2022/05/25 08:15:29;;;;;;;25.83;23.95;;;16.60;99.90;;;;;;5000983;28;20046;-73
2022/05/25 08:17:56;;;;;;;26.05;24.20;;;16.90;99.90;;;;;;5009021;28;20042;-73
2022/05/25 08:20:23;;;;;;;24.63;23.02;;;17.60;99.90;;;;;;5003031;28;20064;-73
2022/05/25 08:22:50;;;;;;;24.90;23.40;;;18.10;99.90;;;;;;4985763;28;20446;-73
2022/05/25 08:25:18;;;;;;;24.00;22.48;;;18.10;99.90;;;;;;4986449;28;20084;-73
2022/05/25 08:27:45;;;;;;;25.27;23.42;;;17.90;99.90;;;;;;5003473;28;20108;-73
2022/05/25 08:30:15;;;;;;;25.02;23.30;;;18.10;99.90;;;;;;4984828;28;20054;-72
2022/05/25 08:32:42;;;;;;;23.58;21.98;;;18.10;99.90;;;;;;5003208;28;20486;-73
2022/05/25 08:35:10;;;;;;;24.08;22.38;;;17.80;99.90;;;;;;5001750;28;20131;-72
2022/05/25 08:37:37;;;;;;;24.75;23.17;;;17.50;99.90;;;;;;4985994;28;20096;-76
2022/05/25 08:40:05;;;;;;;23.30;21.92;;;17.20;99.90;;;;;;4985317;28;20082;-72
2022/05/25 08:42:47;;;;;;;22.38;20.95;;;17.40;99.90;;;;;;4997605;28;20155;-73
2022/05/25 08:45:15;;;;;;;24.35;22.65;;;17.40;99.90;;;;;;4987671;28;20168;-73
2022/05/25 08:47:50;;;;;;;23.52;21.92;;;17.10;99.90;;;;;;5011196;28;20046;-76
2022/05/25 08:50:16;;;;;;;;;;;16.90;99.90;;;;;;5003775;28;20739;-74
2022/05/25 08:52:44;;;;;;;22.30;21.10;;;16.80;99.90;;;;;;5002993;28;20369;-75
2022/05/25 08:55:17;;;;;;;22.02;20.70;;;17.10;99.90;;;;;;5003048;28;20046;-74
2022/05/25 08:57:49;;;;;;;22.20;20.70;;;17.40;99.90;;;;;;5002969;28;20112;-75
2022/05/25 09:00:18;;;;;;;23.10;21.55;;;17.60;99.90;;;;;;5002222;28;20076;-76
2022/05/25 09:03:04;;;;;;;22.30;21.02;;;17.90;99.90;;;;;;4984312;28;20060;-77
2022/05/25 09:05:37;;;;;;;23.80;22.10;;;18.40;99.90;;;;;;5004294;28;20046;-73
2022/05/25 09:08:04;;;;;;;22.95;21.27;;;18.50;99.90;;;;;;4990441;28;20050;-75
2022/05/25 09:10:36;;;;;;;22.30;20.92;;;18.90;99.90;;;;;;5005497;28;20602;-75
2022/05/25 09:13:13;;;;;;;23.00;21.40;;;18.90;99.90;;;;;;4993383;28;20069;-75
2022/05/25 09:18:51;;;;;;;24.67;22.92;;;18.20;99.90;;;;;;5025811;28;20049;-75
2022/05/25 09:21:23;;;;;;;22.52;21.13;;;17.60;99.90;;;;;;5005895;28;20508;-75
2022/05/25 09:23:52;;;;;;;22.25;21.05;;;17.60;99.90;;;;;;5005266;28;20563;-76
2022/05/25 09:26:19;;;;;;;22.48;21.17;;;18.00;99.90;;;;;;5006332;28;20720;-75
2022/05/25 09:28:50;;;;;;;22.92;21.42;;;18.10;99.90;;;;;;5005599;28;20073;-76
2022/05/25 09:31:34;;;;;;;21.95;20.75;;;18.30;99.90;;;;;;5006070;28;20108;-74
2022/05/25 09:34:08;;;;;;;24.40;23.05;;;18.30;99.90;;;;;;4998871;28;20053;-75
2022/05/25 09:36:47;;;;;;;21.65;20.55;;;18.20;99.90;;;;;;4988760;28;20053;-75
2022/05/25 09:39:28;;;;;;;21.83;20.65;;;18.50;99.90;;;;;;4995578;28;20823;-75
2022/05/25 09:41:59;;;;;;;20.95;19.85;;;18.60;99.90;;;;;;4971105;28;20082;-75
2022/05/25 09:44:26;;;;;;;21.23;20.10;;;18.60;99.90;;;;;;4999377;28;20080;-76
2022/05/25 09:47:03;;;;;;;22.08;20.92;;;18.70;99.90;;;;;;5014098;28;20508;-76
2022/05/25 09:49:47;;;;;;;22.05;20.67;;;19.10;99.90;;;;;;5027023;28;20435;-75
2022/05/25 09:52:28;;;;;;;21.50;20.30;;;19.00;99.90;;;;;;5026612;28;20420;-75
2022/05/25 09:55:13;;;;;;;22.38;21.15;;;19.00;99.90;;;;;;5015076;28;20144;-75
2022/05/25 09:57:53;;;;;;;21.55;20.35;;;19.50;99.90;;;;;;5005432;28;20131;-74
2022/05/25 10:00:25;;;;;;;20.75;19.65;;;19.70;99.90;;;;;;4988978;28;20050;-75
2022/05/25 10:03:06;;;;;;;20.67;19.58;;;19.30;99.90;;;;;;4988788;28;20547;-74
2022/05/25 10:05:47;;;;;;;21.10;20.00;;;19.20;99.90;;;;;;5004478;28;20590;-74
2022/05/25 10:08:22;;;;;;;22.48;21.25;;;18.90;99.90;;;;;;5004692;28;20065;-74
2022/05/25 10:10:56;;;;;;;22.27;21.08;;;19.10;99.90;;;;;;4987505;28;20509;-75
2022/05/25 10:13:35;;;;;;;21.38;20.27;;;18.90;99.90;;;;;;5010361;28;20100;-75
2022/05/25 10:16:20;;;;;;;23.60;22.02;;;19.50;99.90;;;;;;5011426;28;20053;-76
2022/05/25 10:18:48;;;;;;;23.13;21.67;;;19.80;99.90;;;;;;4988927;28;20045;-74
2022/05/25 10:21:25;;;;;;;20.83;19.63;;;19.80;99.90;;;;;;5006297;28;20103;-76
2022/05/25 10:23:53;;;;;;;22.42;20.35;;;19.60;99.90;;;;;;5003351;28;20104;-74
2022/05/25 10:26:47;;;;;;;21.50;19.88;;;19.30;99.90;;;;;;5006033;28;20100;-75
2022/05/25 10:38:28;;;;;;;21.77;20.23;;;19.00;99.90;;;;;;4988822;28;20397;-74
2022/05/25 10:43:46;;;;;;;23.40;22.20;;;18.20;99.90;;;;;;5009633;28;20050;-75
2022/05/25 10:46:15;;;;;;;22.52;21.13;;;18.30;99.90;;;;;;5011566;28;20042;-76
2022/05/25 10:48:54;;;;;;;22.80;21.35;;;18.80;99.90;;;;;;4988217;28;20704;-73
2022/05/25 10:51:33;;;;;;;22.75;21.35;;;19.30;99.90;;;;;;5003712;28;20326;-75
2022/05/25 10:57:25;;;;;;;23.52;22.10;;;19.30;99.90;;;;;;5005403;28;20049;-76
2022/05/25 11:00:10;;;;;;;23.20;21.80;;;19.40;99.90;;;;;;4986950;28;20099;-75
2022/05/25 11:02:52;;;;;;;23.00;21.70;;;19.40;99.90;;;;;;4968996;28;20145;-74
2022/05/25 11:05:52;;;;;;;23.77;22.30;;;19.40;99.90;;;;;;4969224;28;20050;-76
2022/05/25 11:08:25;;;;;;;22.63;21.20;;;19.50;99.90;;;;;;4942831;28;20046;-76
2022/05/25 11:10:58;;;;;;;22.88;21.65;;;19.70;99.90;;;;;;4989110;28;20046;-76
2022/05/25 11:14:02;;;;;;;21.40;20.08;;;19.70;99.90;;;;;;5002882;28;20096;-75
2022/05/25 11:17:00;;;;;;;22.88;21.58;;;19.80;99.90;;;;;;4993934;28;20520;-75
2022/05/25 11:19:59;;;;;;;23.20;21.90;;;19.60;99.90;;;;;;5024320;28;20528;-75
2022/05/25 11:22:26;;;;;;;20.90;19.60;;;20.00;99.90;;;;;;4987423;28;20131;-73
2022/05/25 11:25:11;;;;;;;21.10;19.90;;;20.10;99.90;;;;;;5014421;28;20053;-74
2022/05/25 11:28:04;;;;;;;;;;;19.80;99.90;;;;;;5014850;28;20050;-74
2022/05/25 11:30:37;;;;;;;21.35;20.05;;;19.40;99.90;;;;;;4986146;28;19937;-72
2022/05/25 11:33:25;;;;;;;23.58;22.17;;;18.90;99.90;;;;;;5005838;28;20056;-77
2022/05/25 11:36:23;;;;;;;21.73;20.25;;;19.10;99.90;;;;;;5006956;28;20060;-78
2022/05/25 11:39:05;;;;;;;21.95;20.60;;;19.60;99.90;;;;;;4987723;28;20308;-77
2022/05/25 11:41:56;;;;;;;22.10;20.90;;;19.50;99.90;;;;;;5003042;28;20058;-75
2022/05/25 11:44:49;;;;;;;22.65;21.25;;;19.40;99.90;;;;;;5001015;28;20129;-75
2022/05/25 11:47:21;;;;;;;21.70;20.48;;;19.30;99.90;;;;;;5013145;28;20113;-75
2022/05/25 11:50:26;;;;;;;22.25;21.02;;;19.50;99.90;;;;;;4988015;28;20739;-75
2022/05/25 11:53:01;;;;;;;21.85;20.67;;;19.70;99.90;;;;;;5004233;28;20060;-76
2022/05/25 11:55:39;;;;;;;22.60;21.05;;;19.80;99.90;;;;;;4987668;28;20160;-77
2022/05/25 11:58:19;;;;;;;23.23;21.77;;;19.80;99.90;;;;;;4987849;28;20119;-76
2022/05/25 12:00:55;;;;;;;22.35;20.75;;;19.80;99.90;;;;;;4987917;28;20505;-75
2022/05/25 12:03:35;;;;;;;23.10;21.40;;;19.90;99.90;;;;;;5004656;28;20061;-71
2022/05/25 12:06:27;;;;;;;23.13;21.73;;;20.30;99.90;;;;;;5004225;28;20104;-72
2022/05/25 12:08:57;;;;;;;19.67;18.67;;;20.10;99.90;;;;;;4986381;28;20108;-72
2022/05/25 12:11:48;;;;;;;20.70;19.50;;;19.80;99.90;;;;;;4994335;28;20049;-71
2022/05/25 12:14:27;;;;;;;24.83;23.42;;;19.30;99.90;;;;;;4985175;28;20133;-71
2022/05/25 12:16:58;;;;;;;24.80;23.15;;;19.10;99.90;;;;;;5003725;28;20053;-72
2022/05/25 12:19:28;;;;;;;20.50;19.50;;;19.20;99.90;;;;;;4997213;28;20045;-71
2022/05/25 12:22:08;;;;;;;21.48;20.05;;;19.50;99.90;;;;;;5005049;28;20084;-72
2022/05/25 12:24:41;;;;;;;21.88;20.48;;;19.60;99.90;;;;;;4999682;28;20053;-72
2022/05/25 12:27:40;;;;;;;24.30;22.83;;;19.50;99.90;;;;;;4994035;28;20053;-71
2022/05/25 12:30:11;;;;;;;20.20;19.10;;;19.70;99.90;;;;;;4993742;28;20053;-72
2022/05/25 12:32:39;;;;;;;21.25;19.92;;;19.80;99.90;;;;;;4988719;28;20132;-72
2022/05/25 12:35:09;;;;;;;20.20;18.90;;;19.40;99.90;;;;;;4999247;28;20060;-72
2022/05/25 12:37:42;;;;;;;21.23;19.98;;;19.00;99.90;;;;;;5001847;28;20136;-72
2022/05/25 12:40:10;;;;;;;20.23;18.92;;;18.70;99.90;;;;;;5007844;28;20507;-73
2022/05/25 12:42:40;;;;;;;22.73;21.17;;;18.80;99.90;;;;;;5000911;28;20141;-71
2022/05/25 12:48:30;;;;;;;23.85;22.35;;;19.00;99.90;;;;;;5007414;28;20049;-74
2022/05/25 12:51:08;;;;;;;22.73;21.45;;;19.00;99.90;;;;;;5010637;28;20073;-73
2022/05/25 12:53:47;;;;;;;21.90;20.52;;;19.20;99.90;;;;;;4988604;28;20148;-72
2022/05/25 12:56:19;;;;;;;20.48;19.17;;;19.10;99.90;;;;;;5005979;28;20046;-72
2022/05/25 12:58:46;;;;;;;20.30;19.10;;;19.20;99.90;;;;;;5022003;28;20100;-71
2022/05/25 13:01:12;;;;;;;20.60;18.92;;;19.20;99.90;;;;;;4989101;28;20111;-72
2022/05/25 13:04:08;;;;;;;23.25;21.90;;;19.10;99.90;;;;;;5012144;28;20060;-72
2022/05/25 13:06:35;;;;;;;;;;;18.90;99.90;;;;;;5020400;28;20073;-73
2022/05/25 13:09:15;;;;;;;21.20;19.77;;;18.90;99.90;;;;;;4981291;28;19956;-72
2022/05/25 13:11:49;;;;;;;20.80;19.60;;;18.80;99.90;;;;;;4986529;28;20057;-72
2022/05/25 13:14:22;;;;;;;23.50;22.02;;;18.70;99.90;;;;;;5010268;28;20292;-72
2022/05/25 13:16:51;;;;;;;23.13;21.83;;;19.00;99.90;;;;;;5007072;28;20532;-73
2022/05/25 13:19:21;;;;;;;21.95;20.70;;;19.60;99.90;;;;;;5007545;28;20076;-73
2022/05/25 13:22:03;;;;;;;20.83;19.50;;;20.20;99.90;;;;;;5024185;23;20108;-72
2022/05/25 13:24:39;;;;;;;20.75;19.55;;;20.30;99.90;;;;;;4980739;28;20062;-74
2022/05/25 13:27:23;;;;;;;20.90;19.80;;;19.60;99.90;;;;;;4976191;28;20106;-71
2022/05/25 13:30:02;;;;;;;21.00;19.70;;;19.10;99.90;;;;;;4965522;28;20469;-74
2022/05/25 13:32:49;;;;;;;22.98;21.77;;;18.90;99.90;;;;;;4953808;28;20058;-74
2022/05/25 13:35:19;;;;;;;22.30;21.00;;;19.00;99.90;;;;;;4965788;28;20157;-74
2022/05/25 13:37:52;;;;;;;22.38;21.17;;;19.50;99.90;;;;;;4967241;28;20118;-73